createdAt,value
2017-02-13T00:00:17.993Z,3.73
2017-02-13T00:01:31.799Z,3.68
2017-02-13T00:02:45.600Z,3.66
2017-02-13T00:03:59.860Z,3.67
2017-02-13T00:05:13.782Z,3.58
2017-02-13T00:06:27.601Z,3.61
2017-02-13T00:07:41.580Z,3.49
2017-02-13T00:08:55.908Z,3.52
2017-02-13T00:10:09.945Z,3.59
2017-02-13T00:11:26.284Z,3.48
2017-02-13T00:12:40.510Z,3.55
2017-02-13T00:13:54.553Z,3.4
2017-02-13T00:15:08.228Z,3.49
2017-02-13T00:16:22.507Z,3.36
2017-02-13T00:17:36.376Z,3.56
2017-02-13T00:18:50.395Z,3.55
2017-02-13T00:20:03.949Z,3.46
2017-02-13T00:21:18.639Z,3.49
2017-02-13T00:22:33.130Z,3.41
2017-02-13T00:23:47.208Z,3.36
2017-02-13T00:25:01.329Z,3.45
2017-02-13T00:26:15.051Z,3.45
2017-02-13T00:27:28.975Z,3.4
2017-02-13T00:28:43.024Z,3.49
2017-02-13T00:29:57.065Z,3.41
2017-02-13T00:31:11.190Z,3.41
2017-02-13T00:32:24.911Z,3.4
2017-02-13T00:33:39.209Z,3.41
2017-02-13T00:34:53.050Z,3.33
2017-02-13T00:36:06.883Z,3.43
2017-02-13T00:37:24.434Z,3.46
2017-02-13T00:38:40.938Z,3.48
2017-02-13T00:39:58.594Z,3.43
2017-02-13T00:41:15.120Z,3.52
2017-02-13T00:42:32.276Z,3.49
2017-02-13T00:43:47.327Z,3.55
2017-02-13T00:45:00.967Z,3.5
2017-02-13T00:46:15.044Z,3.49
2017-02-13T00:47:29.287Z,3.61
2017-02-13T00:48:43.487Z,3.56
2017-02-13T00:49:57.421Z,3.64
2017-02-13T00:51:11.676Z,3.53
2017-02-13T00:52:25.299Z,3.66
2017-02-13T00:53:39.266Z,3.55
2017-02-13T00:54:53.441Z,3.53
2017-02-13T00:56:07.186Z,3.36
2017-02-13T00:57:21.121Z,3.4
2017-02-13T00:58:35.096Z,3.37
2017-02-13T01:02:46.351Z,3.33
2017-02-13T01:04:01.408Z,3.41
2017-02-13T01:05:15.657Z,3.37
2017-02-13T01:06:29.327Z,3.45
2017-02-13T01:07:43.234Z,3.4
2017-02-13T01:08:57.048Z,3.37
2017-02-13T01:10:10.655Z,3.4
2017-02-13T01:11:25.009Z,3.29
2017-02-13T01:12:38.629Z,3.24
2017-02-13T01:13:52.356Z,3.29
2017-02-13T01:15:06.497Z,3.24
2017-02-13T01:16:20.035Z,3.26
2017-02-13T01:17:34.585Z,3.36
2017-02-13T01:18:48.058Z,3.4
2017-02-13T01:20:01.855Z,3.37
2017-02-13T01:21:15.891Z,3.34
2017-02-13T01:22:29.733Z,3.33
2017-02-13T01:23:44.049Z,3.29
2017-02-13T01:24:57.782Z,3.33
2017-02-13T01:26:11.832Z,3.33
2017-02-13T01:27:25.891Z,3.26
2017-02-13T01:28:39.366Z,3.21
2017-02-13T01:29:55.619Z,3.29
2017-02-13T01:31:09.510Z,3.3
2017-02-13T01:32:23.409Z,3.34
2017-02-13T01:33:37.096Z,3.37
2017-02-13T01:34:50.905Z,3.26
2017-02-13T01:36:04.693Z,3.24
2017-02-13T01:37:18.561Z,3.22
2017-02-13T01:38:35.080Z,3.18
2017-02-13T01:39:48.934Z,3.22
2017-02-13T01:41:02.598Z,3.21
2017-02-13T01:42:16.376Z,3.26
2017-02-13T01:43:30.276Z,3.19
2017-02-13T01:44:44.183Z,3.22
2017-02-13T01:45:57.953Z,3.3
2017-02-13T01:47:11.991Z,3.22
2017-02-13T01:48:26.365Z,3.24
2017-02-13T01:49:39.914Z,3.26
2017-02-13T01:50:53.751Z,3.36
2017-02-13T01:52:07.669Z,3.33
2017-02-13T01:53:22.277Z,3.36
2017-02-13T01:54:36.038Z,3.41
2017-02-13T01:55:49.839Z,3.46
2017-02-13T01:57:03.793Z,3.4
2017-02-13T01:58:17.870Z,3.41
2017-02-13T01:59:31.740Z,3.43
2017-02-13T02:00:45.855Z,3.36
2017-02-13T02:01:59.330Z,3.34
2017-02-13T02:03:13.799Z,3.31
2017-02-13T02:04:27.618Z,3.26
2017-02-13T02:05:41.344Z,3.26
2017-02-13T02:06:55.305Z,3.16
2017-02-13T02:08:09.134Z,3.31
2017-02-13T02:09:22.594Z,3.29
2017-02-13T02:10:36.849Z,3.31
2017-02-13T02:11:50.407Z,3.29
2017-02-13T02:13:04.771Z,3.36
2017-02-13T02:14:18.341Z,3.33
2017-02-13T02:15:31.986Z,3.4
2017-02-13T02:16:45.795Z,3.34
2017-02-13T02:18:14.344Z,3.46
2017-02-13T02:19:28.427Z,3.37
2017-02-13T02:20:42.256Z,3.36
2017-02-13T02:21:55.928Z,3.26
2017-02-13T02:23:17.669Z,3.27
2017-02-13T02:24:40.709Z,3.19
2017-02-13T02:26:03.481Z,3.21
2017-02-13T02:27:25.639Z,3.21
2017-02-13T02:28:47.492Z,3.22
2017-02-13T02:30:09.343Z,3.24
2017-02-13T02:31:31.401Z,3.13
2017-02-13T02:32:54.604Z,3.15
2017-02-13T02:34:15.730Z,3.21
2017-02-13T02:35:37.344Z,3.19
2017-02-13T02:37:03.341Z,3.21
2017-02-13T02:38:22.790Z,3.34
2017-02-13T02:39:38.489Z,3.3
2017-02-13T02:40:52.128Z,3.22
2017-02-13T02:42:05.954Z,3.26
2017-02-13T02:43:20.255Z,3.27
2017-02-13T02:44:34.180Z,3.36
2017-02-13T02:45:48.279Z,3.27
2017-02-13T02:47:02.181Z,3.27
2017-02-13T02:48:18.146Z,3.24
2017-02-13T02:49:31.952Z,3.24
2017-02-13T02:50:46.118Z,3.21
2017-02-13T02:51:59.980Z,3.19
2017-02-13T02:53:14.092Z,3.22
2017-02-13T02:54:27.808Z,3.31
2017-02-13T02:55:41.874Z,3.29
2017-02-13T02:56:56.250Z,3.33
2017-02-13T02:58:25.132Z,3.4
2017-02-13T02:59:39.460Z,3.24
2017-02-13T03:00:53.265Z,3.29
2017-02-13T03:02:06.956Z,3.26
2017-02-13T03:03:20.795Z,3.24
2017-02-13T03:04:49.366Z,3.21
2017-02-13T03:06:03.897Z,3.3
2017-02-13T03:07:17.658Z,3.36
2017-02-13T03:08:31.483Z,3.27
2017-02-13T03:09:45.304Z,3.36
2017-02-13T03:10:59.098Z,3.36
2017-02-13T03:12:13.419Z,3.31
2017-02-13T03:13:27.764Z,3.31
2017-02-13T03:14:41.485Z,3.33
2017-02-13T03:15:55.223Z,3.21
2017-02-13T03:17:08.833Z,3.16
2017-02-13T03:18:23.017Z,3.26
2017-02-13T03:19:36.826Z,3.26
2017-02-13T03:20:50.580Z,3.26
2017-02-13T03:22:04.016Z,3.26
2017-02-13T03:23:18.110Z,3.15
2017-02-13T03:24:32.079Z,3.22
2017-02-13T03:25:45.944Z,3.24
2017-02-13T03:26:59.560Z,3.09
2017-02-13T03:28:13.598Z,3.09
2017-02-13T03:29:27.135Z,3.15
2017-02-13T03:30:41.320Z,3.15
2017-02-13T03:31:54.965Z,3.13
2017-02-13T03:33:08.688Z,3.15
2017-02-13T03:34:22.445Z,3.13
2017-02-13T03:35:36.495Z,3.03
2017-02-13T03:36:50.546Z,3.15
2017-02-13T03:38:04.166Z,3.16
2017-02-13T03:39:17.694Z,3.26
2017-02-13T03:40:31.783Z,3.24
2017-02-13T03:41:45.546Z,3.29
2017-02-13T03:42:59.540Z,3.21
2017-02-13T03:44:13.496Z,3.22
2017-02-13T03:45:27.809Z,3.22
2017-02-13T03:46:41.644Z,3.26
2017-02-13T03:47:55.572Z,3.19
2017-02-13T03:49:09.682Z,3.15
2017-02-13T03:50:23.619Z,3.24
2017-02-13T03:51:37.287Z,3.18
2017-02-13T03:52:51.208Z,3.18
2017-02-13T03:54:04.774Z,3.15
2017-02-13T03:55:18.682Z,3.15
2017-02-13T03:56:32.133Z,3.11
2017-02-13T03:57:46.104Z,3.19
2017-02-13T03:58:59.786Z,3.16
2017-02-13T04:00:13.699Z,3.06
2017-02-13T04:01:27.453Z,3.01
2017-02-13T04:02:41.551Z,3.12
2017-02-13T04:03:55.361Z,3.12
2017-02-13T04:05:26.445Z,3.19
2017-02-13T04:06:40.406Z,3.18
2017-02-13T04:07:53.989Z,3.13
2017-02-13T04:09:07.947Z,3.06
2017-02-13T04:10:21.719Z,3.09
2017-02-13T04:11:35.603Z,3.18
2017-02-13T04:12:49.043Z,3.16
2017-02-13T04:14:03.137Z,3.13
2017-02-13T04:15:16.597Z,3.12
2017-02-13T04:16:30.566Z,3.16
2017-02-13T04:17:44.090Z,3.22
2017-02-13T04:18:57.853Z,3.16
2017-02-13T04:20:11.746Z,3.11
2017-02-13T04:21:25.461Z,3.13
2017-02-13T04:22:39.211Z,3.16
2017-02-13T04:23:52.908Z,3.19
2017-02-13T04:25:06.629Z,3.16
2017-02-13T04:26:21.244Z,3.12
2017-02-13T04:27:34.864Z,3.16
2017-02-13T04:28:48.724Z,3.16
2017-02-13T04:30:02.792Z,3.09
2017-02-13T04:31:16.641Z,3.16
2017-02-13T04:32:30.709Z,3.12
2017-02-13T04:33:44.473Z,3.16
2017-02-13T04:34:58.370Z,3.12
2017-02-13T04:36:12.236Z,3.15
2017-02-13T04:37:26.249Z,3.06
2017-02-13T04:38:40.270Z,3.12
2017-02-13T04:39:54.612Z,3.03
2017-02-13T04:41:09.700Z,3.15
2017-02-13T04:42:23.399Z,3.01
2017-02-13T04:43:37.447Z,3.05
2017-02-13T04:44:51.373Z,3.11
2017-02-13T04:46:05.183Z,3.03
2017-02-13T04:47:18.681Z,3.18
2017-02-13T04:48:32.946Z,3.13
2017-02-13T04:49:46.850Z,3.06
2017-02-13T04:51:00.896Z,3.11
2017-02-13T04:52:14.646Z,3
2017-02-13T04:53:28.422Z,3.18
2017-02-13T04:54:42.315Z,3.15
2017-02-13T04:55:56.247Z,3.13
2017-02-13T04:57:10.088Z,3.13
2017-02-13T04:58:24.331Z,3.13
2017-02-13T04:59:38.086Z,3.19
2017-02-13T05:00:52.461Z,3.11
2017-02-13T05:02:06.668Z,3.22
2017-02-13T05:03:20.993Z,3.34
2017-02-13T05:04:35.222Z,3.3
2017-02-13T05:05:48.866Z,3.22
2017-02-13T05:07:02.652Z,3.31
2017-02-13T05:08:16.457Z,3.21
2017-02-13T05:09:30.457Z,3.31
2017-02-13T05:10:44.340Z,3.22
2017-02-13T05:11:58.148Z,3.27
2017-02-13T05:13:12.142Z,3.22
2017-02-13T05:14:26.334Z,3.27
2017-02-13T05:15:40.402Z,3.4
2017-02-13T05:16:53.923Z,3.43
2017-02-13T05:18:07.644Z,3.53
2017-02-13T05:19:21.377Z,3.41
2017-02-13T05:20:35.151Z,3.5
2017-02-13T05:21:51.751Z,3.56
2017-02-13T05:23:05.511Z,3.52
2017-02-13T05:24:19.382Z,3.52
2017-02-13T05:25:33.639Z,3.58
2017-02-13T05:26:47.354Z,3.49
2017-02-13T05:28:01.179Z,3.49
2017-02-13T05:29:14.919Z,3.59
2017-02-13T05:30:28.382Z,3.67
2017-02-13T05:31:42.325Z,3.66
2017-02-13T05:32:56.247Z,3.64
2017-02-13T05:34:10.286Z,4.1
2017-02-13T05:35:24.042Z,4.68
2017-02-13T05:36:37.729Z,4.95
2017-02-13T05:37:51.938Z,4.9
2017-02-13T05:39:05.694Z,5.13
2017-02-13T05:40:19.511Z,4.71
2017-02-13T05:41:33.930Z,4.49
2017-02-13T05:42:47.473Z,4.28
2017-02-13T05:44:01.407Z,4.14
2017-02-13T05:45:15.025Z,4.03
2017-02-13T05:46:29.476Z,3.89
2017-02-13T05:47:43.169Z,3.85
2017-02-13T05:48:57.068Z,3.85
2017-02-13T05:50:11.050Z,3.84
2017-02-13T05:51:24.868Z,3.85
2017-02-13T05:52:38.925Z,3.86
2017-02-13T05:53:53.310Z,3.81
2017-02-13T05:55:07.036Z,3.82
2017-02-13T05:56:33.119Z,3.74
2017-02-13T05:57:46.926Z,3.74
2017-02-13T05:59:01.010Z,3.7
2017-02-13T06:00:43.543Z,3.71
2017-02-13T06:01:57.372Z,3.67
2017-02-13T06:03:11.052Z,3.71
2017-02-13T06:04:25.216Z,3.63
2017-02-13T06:05:38.733Z,3.71
2017-02-13T06:06:53.384Z,3.71
2017-02-13T06:08:06.886Z,3.64
2017-02-13T06:09:20.817Z,3.73
2017-02-13T06:10:34.453Z,3.74
2017-02-13T06:11:48.913Z,3.7
2017-02-13T06:13:03.350Z,3.7
2017-02-13T06:14:17.237Z,3.68
2017-02-13T06:15:31.175Z,3.66
2017-02-13T06:16:44.988Z,3.68
2017-02-13T06:17:59.458Z,3.61
2017-02-13T06:19:13.404Z,3.73
2017-02-13T06:20:28.466Z,3.71
2017-02-13T06:21:42.149Z,3.67
2017-02-13T06:22:55.754Z,3.67
2017-02-13T06:24:10.192Z,3.68
2017-02-13T06:25:24.232Z,3.68
2017-02-13T06:26:38.887Z,3.7
2017-02-13T06:27:52.424Z,3.67
2017-02-13T06:29:06.030Z,3.76
2017-02-13T06:30:19.809Z,3.68
2017-02-13T06:31:33.894Z,3.77
2017-02-13T06:32:47.980Z,3.76
2017-02-13T06:34:01.935Z,3.78
2017-02-13T06:35:16.051Z,3.76
2017-02-13T06:36:29.779Z,3.85
2017-02-13T06:37:43.927Z,3.81
2017-02-13T06:38:59.942Z,3.84
2017-02-13T06:40:14.619Z,3.91
2017-02-13T06:41:28.779Z,3.92
2017-02-13T06:42:42.406Z,3.88
2017-02-13T06:43:57.040Z,3.91
2017-02-13T06:45:10.562Z,3.82
2017-02-13T06:46:24.462Z,3.91
2017-02-13T06:47:38.123Z,3.89
2017-02-13T06:48:52.483Z,3.82
2017-02-13T06:50:21.560Z,3.86
2017-02-13T06:51:35.482Z,3.86
2017-02-13T06:52:48.971Z,3.94
2017-02-13T06:54:03.151Z,4.02
2017-02-13T06:55:17.216Z,4.02
2017-02-13T06:56:31.409Z,4.02
2017-02-13T06:57:45.206Z,4.09
2017-02-13T06:58:59.229Z,4.02
2017-02-13T07:00:12.960Z,3.86
2017-02-13T07:01:27.091Z,3.91
2017-02-13T07:02:40.579Z,3.85
2017-02-13T07:03:54.191Z,3.82
2017-02-13T07:05:07.917Z,3.91
2017-02-13T07:06:22.145Z,4.02
2017-02-13T07:07:36.130Z,4
2017-02-13T07:08:49.829Z,4.02
2017-02-13T07:10:03.471Z,3.86
2017-02-13T07:11:17.232Z,3.86
2017-02-13T07:12:31.370Z,3.95
2017-02-13T07:13:45.602Z,3.85
2017-02-13T07:14:59.731Z,3.96
2017-02-13T07:16:13.440Z,4
2017-02-13T07:17:27.195Z,3.99
2017-02-13T07:18:41.211Z,4.07
2017-02-13T07:19:54.999Z,4.02
2017-02-13T07:21:08.912Z,3.89
2017-02-13T07:22:22.738Z,3.94
2017-02-13T07:23:36.983Z,3.99
2017-02-13T07:24:50.991Z,4
2017-02-13T07:26:04.942Z,3.99
2017-02-13T07:27:18.685Z,4.02
2017-02-13T07:28:32.733Z,3.96
2017-02-13T07:29:46.317Z,3.99
2017-02-13T07:31:00.780Z,4.04
2017-02-13T07:32:14.671Z,4.02
2017-02-13T07:33:28.755Z,4.07
2017-02-13T07:34:42.368Z,4.02
2017-02-13T07:35:56.162Z,4.06
2017-02-13T07:37:09.854Z,3.95
2017-02-13T07:38:24.237Z,3.95
2017-02-13T07:39:38.757Z,4.02
2017-02-13T07:40:52.425Z,3.92
2017-02-13T07:42:06.024Z,3.89
2017-02-13T07:43:19.702Z,3.94
2017-02-13T07:44:34.275Z,4.04
2017-02-13T07:45:48.083Z,3.92
2017-02-13T07:47:01.733Z,3.95
2017-02-13T07:48:15.576Z,3.99
2017-02-13T07:49:29.312Z,3.99
2017-02-13T07:50:43.730Z,4.04
2017-02-13T07:51:57.483Z,4.03
2017-02-13T07:53:11.231Z,3.95
2017-02-13T07:54:24.869Z,4.04
2017-02-13T07:55:40.881Z,4.09
2017-02-13T07:57:09.657Z,4.09
2017-02-13T07:58:23.153Z,4.12
2017-02-13T07:59:37.146Z,4.31
2017-02-13T08:00:50.952Z,4.3
2017-02-13T08:02:05.175Z,4.28
2017-02-13T08:03:19.026Z,4.3
2017-02-13T08:04:32.966Z,4.38
2017-02-13T08:05:46.596Z,4.32
2017-02-13T08:07:00.596Z,4.3
2017-02-13T08:08:15.363Z,4.38
2017-02-13T08:09:29.852Z,4.32
2017-02-13T08:10:43.538Z,4.48
2017-02-13T08:11:57.622Z,4.52
2017-02-13T08:13:11.495Z,4.48
2017-02-13T08:14:25.740Z,4.49
2017-02-13T08:15:39.772Z,4.48
2017-02-13T08:16:53.465Z,4.48
2017-02-13T08:18:07.078Z,4.58
2017-02-13T08:19:20.909Z,4.68
2017-02-13T08:20:34.778Z,4.56
2017-02-13T08:21:48.880Z,4.48
2017-02-13T08:23:02.515Z,4.52
2017-02-13T08:24:16.411Z,4.56
2017-02-13T08:25:30.341Z,4.49
2017-02-13T08:26:44.289Z,4.48
2017-02-13T08:27:58.461Z,4.36
2017-02-13T08:29:12.243Z,4.49
2017-02-13T08:30:26.431Z,4.42
2017-02-13T08:31:40.201Z,4.39
2017-02-13T08:32:53.958Z,4.5
2017-02-13T08:34:07.888Z,4.45
2017-02-13T08:35:21.721Z,4.53
2017-02-13T08:36:35.738Z,4.48
2017-02-13T08:37:49.285Z,4.58
2017-02-13T08:39:03.150Z,4.56
2017-02-13T08:40:17.085Z,4.64
2017-02-13T08:41:31.052Z,4.67
2017-02-13T08:42:44.726Z,4.6
2017-02-13T08:43:58.480Z,4.61
2017-02-13T08:45:12.373Z,4.74
2017-02-13T08:46:26.381Z,4.78
2017-02-13T08:47:40.140Z,4.86
2017-02-13T08:48:54.217Z,4.9
2017-02-13T08:50:07.993Z,4.83
2017-02-13T08:51:21.620Z,4.83
2017-02-13T08:52:35.451Z,4.84
2017-02-13T08:53:49.452Z,4.84
2017-02-13T08:55:03.023Z,4.94
2017-02-13T08:56:16.643Z,4.95
2017-02-13T08:57:30.116Z,5.01
2017-02-13T08:58:44.341Z,5.13
2017-02-13T08:59:58.296Z,5.2
2017-02-13T09:01:12.375Z,5.22
2017-02-13T09:02:26.369Z,5.19
2017-02-13T09:03:40.047Z,5.19
2017-02-13T09:04:54.264Z,5.1
2017-02-13T09:06:08.304Z,5.15
2017-02-13T09:07:22.162Z,5.15
2017-02-13T09:08:35.852Z,5.22
2017-02-13T09:09:49.575Z,5.25
2017-02-13T09:11:03.975Z,5.33
2017-02-13T09:12:20.171Z,5.34
2017-02-13T09:13:34.076Z,5.23
2017-02-13T09:14:48.433Z,5.22
2017-02-13T09:17:46.292Z,5.29
2017-02-13T09:19:00.014Z,5.36
2017-02-13T09:20:13.850Z,5.4
2017-02-13T09:21:27.567Z,5.56
2017-02-13T09:22:41.756Z,5.51
2017-02-13T09:23:55.688Z,5.59
2017-02-13T09:25:10.091Z,5.58
2017-02-13T09:26:23.739Z,5.64
2017-02-13T09:27:37.623Z,5.58
2017-02-13T09:28:51.422Z,5.67
2017-02-13T09:30:06.594Z,5.43
2017-02-13T09:31:20.140Z,5.46
2017-02-13T09:32:34.899Z,5.41
2017-02-13T09:33:48.491Z,5.44
2017-02-13T09:35:02.769Z,5.44
2017-02-13T09:36:16.745Z,5.25
2017-02-13T09:37:30.687Z,5.26
2017-02-13T09:38:44.320Z,5.28
2017-02-13T09:39:58.922Z,5.16
2017-02-13T09:41:12.689Z,5.28
2017-02-13T09:42:27.053Z,5.31
2017-02-13T09:43:40.664Z,5.29
2017-02-13T09:44:54.532Z,5.29
2017-02-13T09:46:08.139Z,5.36
2017-02-13T09:47:22.222Z,5.41
2017-02-13T09:48:36.429Z,5.49
2017-02-13T09:49:50.699Z,5.69
2017-02-13T09:51:04.169Z,5.65
2017-02-13T09:52:17.856Z,5.73
2017-02-13T09:53:31.551Z,5.76
2017-02-13T09:54:45.936Z,5.77
2017-02-13T09:55:59.845Z,5.69
2017-02-13T09:57:13.851Z,5.69
2017-02-13T09:58:27.339Z,5.65
2017-02-13T09:59:41.393Z,5.81
2017-02-13T10:00:55.400Z,5.81
2017-02-13T10:02:09.072Z,5.73
2017-02-13T10:03:22.934Z,5.69
2017-02-13T10:04:37.028Z,5.61
2017-02-13T10:05:50.613Z,5.56
2017-02-13T10:07:05.043Z,5.67
2017-02-13T10:08:19.394Z,5.58
2017-02-13T10:09:33.081Z,5.37
2017-02-13T10:10:46.608Z,5.43
2017-02-13T10:12:00.424Z,5.55
2017-02-13T10:13:14.431Z,5.49
2017-02-13T10:14:28.163Z,5.43
2017-02-13T10:15:42.606Z,5.46
2017-02-13T10:16:56.540Z,5.59
2017-02-13T10:19:39.735Z,5.74
2017-02-13T10:20:53.371Z,5.81
2017-02-13T10:22:07.187Z,5.92
2017-02-13T10:23:21.096Z,5.95
2017-02-13T10:24:35.054Z,6.06
2017-02-13T10:25:49.086Z,6.02
2017-02-13T10:27:03.625Z,6.07
2017-02-13T10:28:17.075Z,6.05
2017-02-13T10:29:33.055Z,6.09
2017-02-13T10:30:46.877Z,6.02
2017-02-13T10:32:01.536Z,6.01
2017-02-13T10:33:15.128Z,6.1
2017-02-13T10:34:29.076Z,6.05
2017-02-13T10:35:43.068Z,5.98
2017-02-13T10:36:56.760Z,6.02
2017-02-13T10:38:11.198Z,6.07
2017-02-13T10:39:25.258Z,6.16
2017-02-13T10:40:38.837Z,6.25
2017-02-13T10:41:52.590Z,6.28
2017-02-13T10:43:06.346Z,6.26
2017-02-13T10:44:20.442Z,6.2
2017-02-13T10:45:34.320Z,6.2
2017-02-13T10:46:48.304Z,6.22
2017-02-13T10:48:01.998Z,6.2
2017-02-13T10:49:15.955Z,6.15
2017-02-13T10:50:30.263Z,6.25
2017-02-13T10:51:44.755Z,6.34
2017-02-13T10:52:58.801Z,6.41
2017-02-13T10:54:13.155Z,6.5
2017-02-13T10:55:26.907Z,6.54
2017-02-13T10:56:41.100Z,6.54
2017-02-13T10:57:54.829Z,6.59
2017-02-13T10:59:08.596Z,6.6
2017-02-13T11:00:22.470Z,6.57
2017-02-13T11:01:36.393Z,6.72
2017-02-13T11:02:50.244Z,6.83
2017-02-13T11:04:03.973Z,6.83
2017-02-13T11:05:18.172Z,6.89
2017-02-13T11:06:32.005Z,7.07
2017-02-13T11:07:45.881Z,7.01
2017-02-13T11:08:59.840Z,7.03
2017-02-13T11:10:13.562Z,7.03
2017-02-13T11:11:27.630Z,7.01
2017-02-13T11:12:41.146Z,7
2017-02-13T11:13:55.175Z,7.01
2017-02-13T11:15:09.191Z,7.14
2017-02-13T11:16:23.441Z,7.29
2017-02-13T11:17:38.304Z,7.25
2017-02-13T11:18:52.762Z,7.31
2017-02-13T11:20:06.687Z,7.29
2017-02-13T11:21:44.971Z,7.29
2017-02-13T11:22:59.299Z,7.14
2017-02-13T11:24:13.121Z,7.19
2017-02-13T11:25:27.001Z,7.26
2017-02-13T11:26:41.145Z,7.26
2017-02-13T11:27:55.260Z,7.26
2017-02-13T11:29:08.803Z,7.4
2017-02-13T11:30:22.717Z,7.43
2017-02-13T11:31:36.498Z,7.4
2017-02-13T11:32:50.274Z,7.39
2017-02-13T11:34:04.150Z,7.43
2017-02-13T11:35:33.133Z,7.48
2017-02-13T11:36:47.464Z,7.55
2017-02-13T11:38:01.268Z,7.61
2017-02-13T11:39:15.444Z,7.64
2017-02-13T11:40:29.503Z,7.75
2017-02-13T11:41:43.672Z,7.69
2017-02-13T11:42:57.411Z,7.61
2017-02-13T11:44:11.948Z,7.64
2017-02-13T11:45:25.766Z,7.67
2017-02-13T11:46:41.704Z,7.64
2017-02-13T11:47:55.580Z,7.8
2017-02-13T11:49:09.445Z,7.77
2017-02-13T11:50:23.448Z,7.77
2017-02-13T11:51:38.150Z,7.78
2017-02-13T11:52:51.781Z,7.74
2017-02-13T11:54:06.094Z,7.85
2017-02-13T11:55:19.703Z,7.83
2017-02-13T11:56:43.553Z,7.91
2017-02-13T11:57:57.699Z,7.96
2017-02-13T11:59:11.805Z,7.96
2017-02-13T12:00:25.629Z,8.01
2017-02-13T12:01:39.722Z,8.02
2017-02-13T12:02:53.946Z,8.06
2017-02-13T12:04:07.921Z,8.05
2017-02-13T12:05:22.168Z,8.13
2017-02-13T12:06:36.057Z,8.24
2017-02-13T12:07:50.495Z,8.21
2017-02-13T12:09:04.010Z,8.2
2017-02-13T12:10:18.836Z,8.18
2017-02-13T12:11:32.422Z,8.23
2017-02-13T12:12:46.673Z,8.32
2017-02-13T12:14:00.711Z,8.17
2017-02-13T12:15:14.908Z,8.17
2017-02-13T12:16:29.333Z,8.32
2017-02-13T12:17:43.870Z,8.23
2017-02-13T12:18:58.253Z,8.24
2017-02-13T12:20:11.970Z,8.26
2017-02-13T12:21:40.777Z,8.2
2017-02-13T12:22:54.893Z,8.16
2017-02-13T12:24:08.961Z,8.23
2017-02-13T12:25:23.018Z,8.18
2017-02-13T12:26:37.280Z,8.32
2017-02-13T12:27:51.201Z,8.32
2017-02-13T12:29:05.259Z,8.41
2017-02-13T12:30:19.516Z,8.42
2017-02-13T12:31:54.550Z,8.45
2017-02-13T12:33:08.551Z,8.59
2017-02-13T12:34:22.607Z,8.68
2017-02-13T12:35:36.781Z,8.74
2017-02-13T12:36:50.574Z,8.61
2017-02-13T12:38:04.547Z,8.66
2017-02-13T12:39:18.367Z,8.63
2017-02-13T12:40:33.087Z,8.78
2017-02-13T12:41:47.333Z,8.81
2017-02-13T12:43:01.259Z,8.82
2017-02-13T12:45:38.503Z,8.81
2017-02-13T12:46:53.340Z,8.89
2017-02-13T12:48:23.367Z,8.96
2017-02-13T12:49:37.358Z,9
2017-02-13T12:50:51.815Z,9.15
2017-02-13T12:52:05.410Z,9.19
2017-02-13T12:53:19.810Z,9.11
2017-02-13T12:54:34.215Z,9.11
2017-02-13T12:55:48.977Z,9.15
2017-02-13T12:57:02.525Z,9.16
2017-02-13T12:58:16.765Z,9.03
2017-02-13T12:59:30.933Z,9.03
2017-02-13T13:00:44.751Z,9.05
2017-02-13T13:02:00.055Z,9.08
2017-02-13T13:03:13.899Z,9.12
2017-02-13T13:04:27.802Z,9.15
2017-02-13T13:05:43.933Z,9.15
2017-02-13T13:06:57.401Z,9.19
2017-02-13T13:08:11.779Z,9.24
2017-02-13T13:09:26.229Z,9.3
2017-02-13T13:10:40.691Z,9.37
2017-02-13T13:11:54.567Z,9.34
2017-02-13T13:13:08.296Z,9.33
2017-02-13T13:14:22.590Z,9.37
2017-02-13T13:15:37.467Z,9.45
2017-02-13T13:16:52.464Z,9.45
2017-02-13T13:18:06.093Z,9.58
2017-02-13T13:19:20.175Z,9.67
2017-02-13T13:20:34.042Z,9.67
2017-02-13T13:21:48.387Z,9.66
2017-02-13T13:23:02.498Z,9.56
2017-02-13T13:24:16.951Z,9.52
2017-02-13T13:25:31.396Z,9.58
2017-02-13T13:26:45.456Z,9.67
2017-02-13T13:28:00.343Z,9.62
2017-02-13T13:29:14.125Z,9.64
2017-02-13T13:30:28.089Z,9.67
2017-02-13T13:31:42.303Z,9.66
2017-02-13T13:32:56.278Z,9.67
2017-02-13T13:34:10.616Z,9.76
2017-02-13T13:35:24.134Z,9.87
2017-02-13T13:36:38.338Z,9.9
2017-02-13T13:37:52.818Z,9.92
2017-02-13T13:39:07.514Z,10.02
2017-02-13T13:40:21.170Z,9.9
2017-02-13T13:41:34.983Z,9.85
2017-02-13T13:42:49.361Z,9.9
2017-02-13T13:44:03.396Z,9.95
2017-02-13T13:45:17.215Z,10.02
2017-02-13T13:46:31.279Z,9.97
2017-02-13T13:47:44.900Z,9.99
2017-02-13T13:48:58.957Z,9.99
2017-02-13T13:50:12.489Z,9.92
2017-02-13T13:51:26.483Z,9.97
2017-02-13T13:52:40.435Z,9.99
2017-02-13T13:53:54.178Z,10.05
2017-02-13T13:55:07.837Z,10.1
2017-02-13T13:56:21.905Z,10.07
2017-02-13T13:57:35.780Z,10.06
2017-02-13T13:58:49.534Z,10.06
2017-02-13T14:00:03.828Z,10.03
2017-02-13T14:01:17.655Z,10.12
2017-02-13T14:02:31.359Z,10.2
2017-02-13T14:03:45.370Z,10.12
2017-02-13T14:04:59.272Z,10.2
2017-02-13T14:06:13.519Z,10.07
2017-02-13T14:07:27.324Z,10.06
2017-02-13T14:08:41.936Z,10.18
2017-02-13T14:09:55.764Z,10.12
2017-02-13T14:11:09.726Z,10.23
2017-02-13T14:12:23.531Z,10.21
2017-02-13T14:13:37.294Z,10.2
2017-02-13T14:14:51.874Z,10.18
2017-02-13T14:16:06.256Z,10.21
2017-02-13T14:17:19.804Z,10.2
2017-02-13T14:18:34.099Z,10.24
2017-02-13T14:19:47.964Z,10.25
2017-02-13T14:21:01.905Z,10.39
2017-02-13T14:22:18.158Z,10.42
2017-02-13T14:23:31.914Z,10.53
2017-02-13T14:24:45.781Z,10.45
2017-02-13T14:25:59.662Z,10.36
2017-02-13T14:27:13.336Z,10.34
2017-02-13T14:28:27.616Z,10.43
2017-02-13T14:29:41.781Z,10.43
2017-02-13T14:30:55.409Z,10.43
2017-02-13T14:32:09.495Z,10.48
2017-02-13T14:33:23.852Z,10.42
2017-02-13T14:34:38.150Z,10.41
2017-02-13T14:35:51.799Z,10.45
2017-02-13T14:37:05.526Z,10.43
2017-02-13T14:38:19.186Z,10.53
2017-02-13T14:39:33.525Z,10.61
2017-02-13T14:40:47.824Z,10.61
2017-02-13T14:42:02.134Z,10.55
2017-02-13T14:43:16.043Z,10.59
2017-02-13T14:44:39.383Z,10.59
2017-02-13T14:45:53.209Z,10.62
2017-02-13T14:47:07.452Z,10.62
2017-02-13T14:48:22.162Z,10.67
2017-02-13T14:49:35.809Z,10.61
2017-02-13T14:50:49.678Z,10.61
2017-02-13T14:52:03.941Z,10.62
2017-02-13T14:53:17.891Z,10.61
2017-02-13T14:54:31.944Z,10.61
2017-02-13T14:55:46.047Z,10.64
2017-02-13T14:57:00.412Z,10.68
2017-02-13T14:58:15.232Z,10.59
2017-02-13T14:59:28.841Z,10.71
2017-02-13T15:00:42.566Z,10.61
2017-02-13T15:01:56.306Z,10.68
2017-02-13T15:03:10.129Z,10.64
2017-02-13T15:04:23.999Z,10.71
2017-02-13T15:05:53.110Z,10.8
2017-02-13T15:07:07.441Z,10.8
2017-02-13T15:08:21.184Z,10.82
2017-02-13T15:09:35.054Z,10.77
2017-02-13T15:10:49.001Z,10.77
2017-02-13T15:12:03.323Z,10.77
2017-02-13T15:13:17.006Z,10.8
2017-02-13T15:14:49.998Z,10.75
2017-02-13T15:16:03.932Z,10.65
2017-02-13T15:17:18.024Z,10.71
2017-02-13T15:18:31.834Z,10.77
2017-02-13T15:19:45.793Z,10.8
2017-02-13T15:20:59.631Z,10.82
2017-02-13T15:22:13.838Z,10.79
2017-02-13T15:23:28.273Z,10.68
2017-02-13T15:24:42.160Z,10.77
2017-02-13T15:25:56.411Z,10.79
2017-02-13T15:27:10.206Z,10.82
2017-02-13T15:28:24.674Z,10.72
2017-02-13T15:29:38.420Z,10.82
2017-02-13T15:30:52.467Z,10.8
2017-02-13T15:32:06.132Z,10.76
2017-02-13T15:33:20.509Z,10.8
2017-02-13T15:34:34.656Z,10.77
2017-02-13T15:35:48.350Z,10.82
2017-02-13T15:37:02.701Z,10.8
2017-02-13T15:38:16.491Z,10.75
2017-02-13T15:39:32.677Z,10.77
2017-02-13T15:40:46.520Z,10.82
2017-02-13T15:42:00.455Z,10.76
2017-02-13T15:43:14.768Z,10.71
2017-02-13T15:44:29.238Z,10.69
2017-02-13T15:45:44.203Z,10.65
2017-02-13T15:46:58.454Z,10.75
2017-02-13T15:48:12.102Z,10.64
2017-02-13T15:49:27.667Z,10.61
2017-02-13T15:50:41.215Z,10.71
2017-02-13T15:51:55.238Z,10.59
2017-02-13T15:53:09.951Z,10.59
2017-02-13T15:54:24.469Z,10.59
2017-02-13T15:55:38.805Z,10.55
2017-02-13T15:56:53.026Z,10.58
2017-02-13T15:58:07.228Z,10.53
2017-02-13T15:59:21.404Z,10.51
2017-02-13T16:00:35.051Z,10.57
2017-02-13T16:01:49.122Z,10.48
2017-02-13T16:03:02.816Z,10.51
2017-02-13T16:04:16.568Z,10.42
2017-02-13T16:05:30.474Z,10.36
2017-02-13T16:06:44.823Z,10.38
2017-02-13T16:07:59.117Z,10.36
2017-02-13T16:09:13.452Z,10.41
2017-02-13T16:10:28.323Z,10.36
2017-02-13T16:11:42.255Z,10.43
2017-02-13T16:12:55.965Z,10.36
2017-02-13T16:14:10.189Z,10.36
2017-02-13T16:15:24.104Z,10.41
2017-02-13T16:16:37.945Z,10.38
2017-02-13T16:17:52.249Z,10.41
2017-02-13T16:19:06.500Z,10.33
2017-02-13T16:20:35.069Z,10.25
2017-02-13T16:21:48.932Z,10.27
2017-02-13T16:23:02.883Z,10.23
2017-02-13T16:24:17.175Z,10.21
2017-02-13T16:25:30.875Z,10.33
2017-02-13T16:26:44.916Z,10.23
2017-02-13T16:27:58.473Z,10.2
2017-02-13T16:29:12.399Z,10.1
2017-02-13T16:30:27.081Z,10.17
2017-02-13T16:31:41.107Z,10.17
2017-02-13T16:32:54.928Z,10.03
2017-02-13T16:34:08.690Z,10.07
2017-02-13T16:35:37.271Z,10.03
2017-02-13T16:36:51.308Z,10